x

Lake Nipissing (45152) Wave Buoy

11:00pm - Tue 29th Jul 2014 All times are CDT. -5 hours from GMT.

  • Sig Wave height 0.7ft
  • Peak Period 2s
  • Wind
    11mph, 16mph gusts
  • Sea Temp 68°f
  • Air Temp 60°f
  • Sea Pressure 1012.1mb
  • Lake Nipissing
  • Lake Nipissing

More Historic Weather Station data

Upgrade to MSW Pro to gain access to the past 30 days of data for over 8000 Wavebouys and Weather Stations around the globe.

Join Pro

Comparision Forecast

View Surf forecast
   
Tue 07/29 11:00pm 0.7ft 2s 11 16 mph 1012.1mb 68f 60f
10:00pm 0.7ft 2s 11 16 mph 1012.2mb 68f 60f
9:00pm 0.3ft 2s 13 16 mph 1012.2mb 68f 61f
8:00pm 0.3ft 3s 9 11 mph 1012mb 68f 61f
7:00pm 0.3ft 3s 9 11 mph 1011.8mb 68f 62f
6:00pm 0.3ft 3s 9 11 mph 1011.6mb 68f 62f
5:00pm  -  3s 9 11 mph 1011.8mb 68f 61f
4:00pm 0.3ft 2s 9 11 mph 1011.9mb 68f 61f
3:00pm 0.3ft 2s 9 16 mph 1011.8mb 68f 61f
2:00pm 0.3ft 3s 9 11 mph 1011.3mb 68f 62f
1:00pm  -  3s 11 13 mph 1011mb 69f 62f
12:00pm 0.3ft 2s 9 11 mph 1011.6mb 69f 61f
11:00am 0.3ft 3s 9 13 mph 1011.4mb 69f 64f
10:00am  -  3s 9 13 mph 1011.4mb 69f 65f
9:00am  -  3s 7 9 mph 1011.9mb 68f 61f
8:00am  -  2s 7 9 mph 1011.9mb 68f 60f
7:00am 0.3ft 2s 7 9 mph 1011.8mb 68f 58f
6:00am 0.3ft 2s 7 9 mph 1011.5mb 68f 57f
5:00am 0.7ft 2s 4 9 mph 1011.4mb 68f 58f
4:00am 0.3ft 2s 9 13 mph 1011.2mb 68f 59f
3:00am 0.7ft 2s 9 11 mph 1010.9mb 68f 60f
2:00am 0.7ft 2s 9 11 mph 1011mb 68f 61f
1:00am  -   -  13
mph
1011.3mb - 61f
12:00am  -   -  9
mph
1011.2mb - 62f
Mon 07/28 11:00pm 0.7ft 2s 13 18 mph 1011.4mb 68f 62f
10:00pm 0.7ft 2s 13
mph
1011.4mb 68f 63f
9:00pm 0.7ft 2s 9 13 mph 1011.6mb 68f 64f
8:00pm 0.7ft 2s 11 16 mph 1011.3mb 68f 64f
7:00pm 0.7ft 2s 13 18 mph 1011.1mb 68f 64f
6:00pm 1ft 3s 13 18 mph 1011mb 68f 65f
5:00pm 1ft 2s 18 20 mph 1010.9mb 69f 64f
4:00pm 1ft 2s 16 22 mph 1010.8mb 69f 64f
3:00pm 1ft 3s 16 20 mph 1010.7mb 69f 64f
2:00pm 1ft 2s 16 18 mph 1010.7mb 69f 63f
12:00pm 1ft 3s 11 16 mph 1011mb 68f 61f
10:00am 1ft 3s 13 20 mph 1011.5mb 68f 57f
9:00am 1ft 2s 16 22 mph 1011.4mb 68f 55f
7:00am 1ft 3s 13 20 mph 1011.7mb 68f 53f
6:00am  -   -  18
mph
1011.6mb - 53f
5:00am 1.6ft 3s 18 25 mph 1011.1mb 68f 54f
4:00am  -   -  22
mph
- - -
3:00am 2ft 4s 22 27 mph 1009.3mb 69f 57f
1:00am 2ft 4s 27
mph
1008.4mb 69f 60f
12:00am 2ft 3s 25 31 mph 1008.5mb 69f 61f
Sun 07/27 11:00pm 1.6ft 3s 25 31 mph 1008.2mb 69f 63f
10:00pm  -   -  22
mph
- - -
9:00pm 0.7ft 2s 16 20 mph 1007.2mb 69f 67f
8:00pm 1ft 2s 11 13 mph 1006.9mb 69f 67f
7:00pm 1ft 2s 11 13 mph 1006.3mb 69f 68f
6:00pm 0.7ft 2s 11 16 mph 1006mb 69f 68f
5:00pm 0.7ft 2s 11 16 mph 1006mb 69f 69f
4:00pm 1ft 2s 13 18 mph 1006mb 69f 67f
3:00pm 0.7ft 2s 13 18 mph 1005.6mb 70f 68f
2:00pm 0.3ft 2s 13 18 mph 1005.3mb 70f 69f
1:00pm 0.3ft 2s 11 16 mph 1005.2mb 70f 68f
12:00pm 0.3ft 2s 7 9 mph 1005mb 69f 67f
11:00am 0.3ft 2s 7 9 mph 1004.7mb 69f 67f
10:00am 0.7ft 2s 7 9 mph 1004.5mb 69f 67f
9:00am 0.7ft 2s 11 13 mph 1004.3mb 69f 66f
8:00am 0.3ft 2s 9 11 mph 1004.2mb 69f 65f
7:00am 0.7ft 2s 9 13 mph 1004mb 69f 64f
6:00am 1ft 2s 11 13 mph 1004mb 69f 64f
5:00am  -   -  18
mph
- - 64f
4:00am 0.3ft 2s 9 11 mph 1003.5mb 69f 65f
3:00am 0.3ft 2s 9 11 mph 1003.9mb 69f 65f
2:00am 0.3ft 2s 9 11 mph 1004.1mb 69f 65f
1:00am 0.3ft 2s 9
mph
1004.3mb 69f 65f
12:00am 0.3ft 2s 7 9 mph 1004.9mb 69f 65f
Sat 07/26 11:00pm 0.3ft 2s 7 9 mph 1005.6mb 69f 65f
10:00pm 0.3ft 2s 11 13 mph 1006.6mb 69f 65f
9:00pm 0.3ft 2s 7 9 mph 1007.1mb 69f 65f
8:00pm 0.3ft 2s 7 9 mph 1006.2mb 69f 65f
7:00pm 0.3ft 2s 11 18 mph 1007.5mb 69f 65f
6:00pm 0.3ft 2s 9 11 mph 1007.5mb 69f 68f
5:00pm 0.7ft 2s 9 13 mph 1007.9mb 69f 68f
4:00pm 0.7ft 2s 11 13 mph 1008.2mb 69f 69f
3:00pm 0.7ft 2s 13 18 mph 1008.4mb 69f 70f
2:00pm 0.7ft 2s 11 13 mph 1008.6mb 69f 70f
1:00pm 0.7ft 2s 16 20 mph 1008.8mb 69f 70f
12:00pm 0.7ft 2s 13 18 mph 1009.2mb 69f 69f
11:00am 0.7ft 2s 13 20 mph 1009.8mb 69f 69f
10:00am 0.7ft 2s 16 20 mph 1010mb 69f 68f
9:00am 0.7ft 2s 13 16 mph 1010.1mb 69f 67f
8:00am 0.7ft 2s 13 18 mph 1010.5mb 69f 65f
7:00am 0.7ft 3s 9 13 mph 1010.8mb 69f 62f
6:00am 1ft 3s 9 11 mph 1010.9mb 69f 62f